sensor_id;sensor_type;location;lat;lon;timestamp;P1;durP1;ratioP1;P2;durP2;ratioP2
7817;SDS011;3954;52.624;9.212;2023-04-25T00:00:20;11.33;;;5.10;;
7817;SDS011;3954;52.624;9.212;2023-04-25T00:02:46;13.67;;;5.03;;
7817;SDS011;3954;52.624;9.212;2023-04-25T00:05:13;9.30;;;5.03;;
7817;SDS011;3954;52.624;9.212;2023-04-25T00:07:41;8.27;;;4.47;;
7817;SDS011;3954;52.624;9.212;2023-04-25T00:10:09;11.07;;;5.00;;
7817;SDS011;3954;52.624;9.212;2023-04-25T00:12:36;9.27;;;5.33;;
7817;SDS011;3954;52.624;9.212;2023-04-25T00:15:02;9.70;;;5.20;;
7817;SDS011;3954;52.624;9.212;2023-04-25T00:17:29;8.93;;;5.37;;
7817;SDS011;3954;52.624;9.212;2023-04-25T00:19:56;12.03;;;5.73;;
7817;SDS011;3954;52.624;9.212;2023-04-25T00:22:23;12.07;;;5.60;;
7817;SDS011;3954;52.624;9.212;2023-04-25T00:24:49;9.57;;;5.63;;
7817;SDS011;3954;52.624;9.212;2023-04-25T00:27:16;14.73;;;5.77;;
7817;SDS011;3954;52.624;9.212;2023-04-25T00:29:42;12.77;;;5.70;;
7817;SDS011;3954;52.624;9.212;2023-04-25T00:32:08;15.97;;;5.67;;
7817;SDS011;3954;52.624;9.212;2023-04-25T00:34:34;11.77;;;6.23;;
7817;SDS011;3954;52.624;9.212;2023-04-25T00:37:01;11.13;;;5.63;;
7817;SDS011;3954;52.624;9.212;2023-04-25T00:39:27;9.73;;;6.20;;
7817;SDS011;3954;52.624;9.212;2023-04-25T00:41:53;14.47;;;6.50;;
7817;SDS011;3954;52.624;9.212;2023-04-25T00:44:21;9.87;;;6.33;;
7817;SDS011;3954;52.624;9.212;2023-04-25T00:46:47;7.77;;;6.00;;
7817;SDS011;3954;52.624;9.212;2023-04-25T00:49:16;12.93;;;7.17;;
7817;SDS011;3954;52.624;9.212;2023-04-25T00:51:42;15.43;;;7.20;;
7817;SDS011;3954;52.624;9.212;2023-04-25T00:54:09;12.73;;;6.07;;
7817;SDS011;3954;52.624;9.212;2023-04-25T00:56:36;13.10;;;6.07;;
7817;SDS011;3954;52.624;9.212;2023-04-25T00:59:02;15.37;;;6.80;;
7817;SDS011;3954;52.624;9.212;2023-04-25T01:01:29;10.03;;;6.57;;
7817;SDS011;3954;52.624;9.212;2023-04-25T01:03:56;12.43;;;7.30;;
7817;SDS011;3954;52.624;9.212;2023-04-25T01:06:24;13.67;;;7.23;;
7817;SDS011;3954;52.624;9.212;2023-04-25T01:08:50;11.10;;;6.23;;
7817;SDS011;3954;52.624;9.212;2023-04-25T01:11:16;11.63;;;5.90;;
7817;SDS011;3954;52.624;9.212;2023-04-25T01:13:42;11.67;;;6.33;;
7817;SDS011;3954;52.624;9.212;2023-04-25T01:16:08;9.10;;;6.23;;
7817;SDS011;3954;52.624;9.212;2023-04-25T01:18:36;8.77;;;5.90;;
7817;SDS011;3954;52.624;9.212;2023-04-25T01:21:07;7.83;;;4.90;;
7817;SDS011;3954;52.624;9.212;2023-04-25T01:23:34;9.30;;;4.10;;
7817;SDS011;3954;52.624;9.212;2023-04-25T01:26:01;11.27;;;3.80;;
7817;SDS011;3954;52.624;9.212;2023-04-25T01:28:27;7.83;;;3.97;;
7817;SDS011;3954;52.624;9.212;2023-04-25T01:30:53;9.90;;;4.23;;
7817;SDS011;3954;52.624;9.212;2023-04-25T01:33:20;12.93;;;4.00;;
7817;SDS011;3954;52.624;9.212;2023-04-25T01:35:46;7.83;;;4.10;;
7817;SDS011;3954;52.624;9.212;2023-04-25T01:38:14;10.47;;;4.23;;
7817;SDS011;3954;52.624;9.212;2023-04-25T01:40:40;13.70;;;3.80;;
7817;SDS011;3954;52.624;9.212;2023-04-25T01:43:07;12.23;;;4.53;;
7817;SDS011;3954;52.624;9.212;2023-04-25T01:45:37;15.20;;;4.50;;
7817;SDS011;3954;52.624;9.212;2023-04-25T01:48:06;10.77;;;3.67;;
7817;SDS011;3954;52.624;9.212;2023-04-25T01:50:32;8.97;;;3.70;;
7817;SDS011;3954;52.624;9.212;2023-04-25T01:52:58;8.97;;;3.77;;
7817;SDS011;3954;52.624;9.212;2023-04-25T01:55:26;9.27;;;3.50;;
7817;SDS011;3954;52.624;9.212;2023-04-25T01:57:52;11.57;;;3.67;;
7817;SDS011;3954;52.624;9.212;2023-04-25T02:00:18;8.77;;;3.40;;
7817;SDS011;3954;52.624;9.212;2023-04-25T02:02:44;10.73;;;4.00;;
7817;SDS011;3954;52.624;9.212;2023-04-25T02:05:10;8.73;;;3.83;;
7817;SDS011;3954;52.624;9.212;2023-04-25T02:07:36;12.17;;;3.83;;
7817;SDS011;3954;52.624;9.212;2023-04-25T02:10:03;13.93;;;4.43;;
7817;SDS011;3954;52.624;9.212;2023-04-25T02:12:30;11.20;;;4.00;;
7817;SDS011;3954;52.624;9.212;2023-04-25T02:14:56;12.73;;;3.80;;
7817;SDS011;3954;52.624;9.212;2023-04-25T02:17:22;12.23;;;4.47;;
7817;SDS011;3954;52.624;9.212;2023-04-25T02:19:48;13.00;;;3.70;;
7817;SDS011;3954;52.624;9.212;2023-04-25T02:22:15;9.43;;;3.70;;
7817;SDS011;3954;52.624;9.212;2023-04-25T02:24:41;13.37;;;4.17;;
7817;SDS011;3954;52.624;9.212;2023-04-25T02:27:07;10.50;;;3.60;;
7817;SDS011;3954;52.624;9.212;2023-04-25T02:29:34;11.53;;;4.10;;
7817;SDS011;3954;52.624;9.212;2023-04-25T02:32:00;12.77;;;3.83;;
7817;SDS011;3954;52.624;9.212;2023-04-25T02:34:27;10.13;;;3.63;;
7817;SDS011;3954;52.624;9.212;2023-04-25T02:36:53;14.87;;;4.53;;
7817;SDS011;3954;52.624;9.212;2023-04-25T02:39:19;13.70;;;4.00;;
7817;SDS011;3954;52.624;9.212;2023-04-25T02:41:47;12.33;;;3.90;;
7817;SDS011;3954;52.624;9.212;2023-04-25T02:44:13;14.20;;;4.40;;
7817;SDS011;3954;52.624;9.212;2023-04-25T02:46:40;9.13;;;4.00;;
7817;SDS011;3954;52.624;9.212;2023-04-25T02:49:06;15.13;;;4.30;;
7817;SDS011;3954;52.624;9.212;2023-04-25T02:51:32;12.57;;;3.83;;
7817;SDS011;3954;52.624;9.212;2023-04-25T02:53:58;13.20;;;3.90;;
7817;SDS011;3954;52.624;9.212;2023-04-25T02:56:24;9.03;;;4.17;;
7817;SDS011;3954;52.624;9.212;2023-04-25T02:58:51;14.07;;;5.10;;
7817;SDS011;3954;52.624;9.212;2023-04-25T03:01:17;14.13;;;4.67;;
7817;SDS011;3954;52.624;9.212;2023-04-25T03:03:44;10.47;;;3.90;;
7817;SDS011;3954;52.624;9.212;2023-04-25T03:06:10;8.67;;;3.57;;
7817;SDS011;3954;52.624;9.212;2023-04-25T03:08:36;13.33;;;3.93;;
7817;SDS011;3954;52.624;9.212;2023-04-25T03:11:02;11.73;;;4.00;;
7817;SDS011;3954;52.624;9.212;2023-04-25T03:13:28;8.70;;;3.53;;
7817;SDS011;3954;52.624;9.212;2023-04-25T03:15:55;15.77;;;4.33;;
7817;SDS011;3954;52.624;9.212;2023-04-25T03:18:21;9.23;;;3.97;;
7817;SDS011;3954;52.624;9.212;2023-04-25T03:20:48;9.70;;;3.93;;
7817;SDS011;3954;52.624;9.212;2023-04-25T03:23:14;14.77;;;4.23;;
7817;SDS011;3954;52.624;9.212;2023-04-25T03:25:40;13.97;;;4.00;;
7817;SDS011;3954;52.624;9.212;2023-04-25T03:28:06;14.27;;;4.30;;
7817;SDS011;3954;52.624;9.212;2023-04-25T03:30:32;13.93;;;4.27;;
7817;SDS011;3954;52.624;9.212;2023-04-25T03:32:58;13.37;;;4.50;;
7817;SDS011;3954;52.624;9.212;2023-04-25T03:35:24;14.67;;;4.43;;
7817;SDS011;3954;52.624;9.212;2023-04-25T03:37:51;14.57;;;4.73;;
7817;SDS011;3954;52.624;9.212;2023-04-25T03:40:17;11.43;;;3.60;;
7817;SDS011;3954;52.624;9.212;2023-04-25T03:42:43;12.23;;;3.87;;
7817;SDS011;3954;52.624;9.212;2023-04-25T03:45:10;10.70;;;5.00;;
7817;SDS011;3954;52.624;9.212;2023-04-25T03:47:36;9.67;;;4.23;;
7817;SDS011;3954;52.624;9.212;2023-04-25T03:50:03;16.80;;;4.60;;
7817;SDS011;3954;52.624;9.212;2023-04-25T03:52:29;16.63;;;4.00;;
7817;SDS011;3954;52.624;9.212;2023-04-25T03:54:56;18.13;;;4.57;;
7817;SDS011;3954;52.624;9.212;2023-04-25T03:57:22;14.70;;;4.57;;
7817;SDS011;3954;52.624;9.212;2023-04-25T03:59:48;13.60;;;4.17;;
7817;SDS011;3954;52.624;9.212;2023-04-25T04:02:14;11.70;;;4.50;;
7817;SDS011;3954;52.624;9.212;2023-04-25T04:04:40;22.93;;;4.60;;
7817;SDS011;3954;52.624;9.212;2023-04-25T04:07:09;14.27;;;3.70;;
7817;SDS011;3954;52.624;9.212;2023-04-25T04:09:35;13.37;;;4.47;;
7817;SDS011;3954;52.624;9.212;2023-04-25T04:12:02;10.17;;;3.83;;
7817;SDS011;3954;52.624;9.212;2023-04-25T04:14:28;14.73;;;4.17;;
7817;SDS011;3954;52.624;9.212;2023-04-25T04:16:55;13.13;;;4.00;;
7817;SDS011;3954;52.624;9.212;2023-04-25T04:19:20;12.13;;;4.17;;
7817;SDS011;3954;52.624;9.212;2023-04-25T04:21:47;9.57;;;4.20;;
7817;SDS011;3954;52.624;9.212;2023-04-25T04:24:13;13.53;;;4.13;;
7817;SDS011;3954;52.624;9.212;2023-04-25T04:26:39;11.00;;;3.93;;
7817;SDS011;3954;52.624;9.212;2023-04-25T04:29:07;14.27;;;4.30;;
7817;SDS011;3954;52.624;9.212;2023-04-25T04:31:33;11.53;;;4.33;;
7817;SDS011;3954;52.624;9.212;2023-04-25T04:33:59;12.67;;;4.73;;
7817;SDS011;3954;52.624;9.212;2023-04-25T04:36:26;9.93;;;3.70;;
7817;SDS011;3954;52.624;9.212;2023-04-25T04:38:52;15.63;;;4.77;;
7817;SDS011;3954;52.624;9.212;2023-04-25T04:41:18;23.17;;;4.47;;
7817;SDS011;3954;52.624;9.212;2023-04-25T04:43:44;10.90;;;4.10;;
7817;SDS011;3954;52.624;9.212;2023-04-25T04:46:12;12.67;;;3.70;;
7817;SDS011;3954;52.624;9.212;2023-04-25T04:48:38;13.13;;;4.40;;
7817;SDS011;3954;52.624;9.212;2023-04-25T04:51:05;15.53;;;4.20;;
7817;SDS011;3954;52.624;9.212;2023-04-25T04:53:31;12.80;;;3.93;;
7817;SDS011;3954;52.624;9.212;2023-04-25T04:55:57;21.73;;;4.67;;
7817;SDS011;3954;52.624;9.212;2023-04-25T04:58:23;11.47;;;3.83;;
7817;SDS011;3954;52.624;9.212;2023-04-25T05:00:49;12.73;;;3.90;;
7817;SDS011;3954;52.624;9.212;2023-04-25T05:03:16;13.63;;;4.13;;
7817;SDS011;3954;52.624;9.212;2023-04-25T05:05:42;14.27;;;4.30;;
7817;SDS011;3954;52.624;9.212;2023-04-25T05:08:08;15.30;;;4.93;;
7817;SDS011;3954;52.624;9.212;2023-04-25T05:10:34;10.07;;;3.60;;
7817;SDS011;3954;52.624;9.212;2023-04-25T05:13:00;11.37;;;3.77;;
7817;SDS011;3954;52.624;9.212;2023-04-25T05:15:26;15.60;;;4.27;;
7817;SDS011;3954;52.624;9.212;2023-04-25T05:17:52;11.67;;;3.90;;
7817;SDS011;3954;52.624;9.212;2023-04-25T05:20:20;12.23;;;4.17;;
7817;SDS011;3954;52.624;9.212;2023-04-25T05:22:46;15.13;;;4.20;;
7817;SDS011;3954;52.624;9.212;2023-04-25T05:25:12;9.60;;;3.93;;
7817;SDS011;3954;52.624;9.212;2023-04-25T05:27:38;13.03;;;3.90;;
7817;SDS011;3954;52.624;9.212;2023-04-25T05:30:04;12.60;;;3.70;;
7817;SDS011;3954;52.624;9.212;2023-04-25T05:32:31;12.03;;;3.97;;
7817;SDS011;3954;52.624;9.212;2023-04-25T05:34:57;11.83;;;3.93;;
7817;SDS011;3954;52.624;9.212;2023-04-25T05:37:24;11.17;;;3.90;;
7817;SDS011;3954;52.624;9.212;2023-04-25T05:39:50;9.60;;;3.70;;
7817;SDS011;3954;52.624;9.212;2023-04-25T05:42:16;10.80;;;3.43;;
7817;SDS011;3954;52.624;9.212;2023-04-25T05:44:42;13.30;;;4.20;;
7817;SDS011;3954;52.624;9.212;2023-04-25T05:47:08;10.43;;;3.87;;
7817;SDS011;3954;52.624;9.212;2023-04-25T05:49:34;12.50;;;3.50;;
7817;SDS011;3954;52.624;9.212;2023-04-25T05:52:00;11.73;;;3.57;;
7817;SDS011;3954;52.624;9.212;2023-04-25T05:54:27;12.00;;;3.93;;
7817;SDS011;3954;52.624;9.212;2023-04-25T05:56:53;14.90;;;3.70;;
7817;SDS011;3954;52.624;9.212;2023-04-25T05:59:19;9.63;;;4.00;;
7817;SDS011;3954;52.624;9.212;2023-04-25T06:01:45;11.27;;;4.40;;
7817;SDS011;3954;52.624;9.212;2023-04-25T06:04:12;11.93;;;4.17;;
7817;SDS011;3954;52.624;9.212;2023-04-25T06:06:38;13.37;;;3.90;;
7817;SDS011;3954;52.624;9.212;2023-04-25T06:09:03;9.00;;;3.30;;
7817;SDS011;3954;52.624;9.212;2023-04-25T06:11:31;18.53;;;4.30;;
7817;SDS011;3954;52.624;9.212;2023-04-25T06:13:57;13.77;;;3.90;;
7817;SDS011;3954;52.624;9.212;2023-04-25T06:16:23;10.50;;;3.70;;
7817;SDS011;3954;52.624;9.212;2023-04-25T06:18:50;13.83;;;3.67;;
7817;SDS011;3954;52.624;9.212;2023-04-25T06:21:16;11.93;;;3.87;;
7817;SDS011;3954;52.624;9.212;2023-04-25T06:23:42;12.53;;;3.73;;
7817;SDS011;3954;52.624;9.212;2023-04-25T06:26:08;9.67;;;4.27;;
7817;SDS011;3954;52.624;9.212;2023-04-25T06:28:36;11.73;;;3.83;;
7817;SDS011;3954;52.624;9.212;2023-04-25T06:31:02;12.27;;;3.73;;
7817;SDS011;3954;52.624;9.212;2023-04-25T06:33:28;10.37;;;3.20;;
7817;SDS011;3954;52.624;9.212;2023-04-25T06:35:54;8.27;;;3.20;;
7817;SDS011;3954;52.624;9.212;2023-04-25T06:38:20;8.53;;;3.40;;
7817;SDS011;3954;52.624;9.212;2023-04-25T06:40:46;10.53;;;3.50;;
7817;SDS011;3954;52.624;9.212;2023-04-25T06:43:12;9.87;;;3.53;;
7817;SDS011;3954;52.624;9.212;2023-04-25T06:45:39;5.83;;;3.10;;
7817;SDS011;3954;52.624;9.212;2023-04-25T06:48:05;11.67;;;3.60;;
7817;SDS011;3954;52.624;9.212;2023-04-25T06:50:34;10.87;;;3.67;;
7817;SDS011;3954;52.624;9.212;2023-04-25T06:53:00;8.40;;;2.57;;
7817;SDS011;3954;52.624;9.212;2023-04-25T06:55:26;8.20;;;3.00;;
7817;SDS011;3954;52.624;9.212;2023-04-25T06:57:52;9.43;;;3.43;;
7817;SDS011;3954;52.624;9.212;2023-04-25T07:00:18;8.53;;;3.10;;
7817;SDS011;3954;52.624;9.212;2023-04-25T07:02:46;8.37;;;2.60;;
7817;SDS011;3954;52.624;9.212;2023-04-25T07:05:12;12.77;;;3.53;;
7817;SDS011;3954;52.624;9.212;2023-04-25T07:07:38;8.07;;;2.63;;
7817;SDS011;3954;52.624;9.212;2023-04-25T07:10:04;7.60;;;2.70;;
7817;SDS011;3954;52.624;9.212;2023-04-25T07:12:30;7.27;;;2.67;;
7817;SDS011;3954;52.624;9.212;2023-04-25T07:14:56;9.50;;;2.80;;
7817;SDS011;3954;52.624;9.212;2023-04-25T07:17:22;5.77;;;2.60;;
7817;SDS011;3954;52.624;9.212;2023-04-25T07:19:49;10.33;;;3.13;;
7817;SDS011;3954;52.624;9.212;2023-04-25T07:22:16;12.90;;;3.40;;
7817;SDS011;3954;52.624;9.212;2023-04-25T07:24:42;11.93;;;3.37;;
7817;SDS011;3954;52.624;9.212;2023-04-25T07:27:12;7.53;;;3.10;;
7817;SDS011;3954;52.624;9.212;2023-04-25T07:29:38;7.33;;;2.47;;
7817;SDS011;3954;52.624;9.212;2023-04-25T07:32:04;5.50;;;2.53;;
7817;SDS011;3954;52.624;9.212;2023-04-25T07:34:30;11.30;;;3.20;;
7817;SDS011;3954;52.624;9.212;2023-04-25T07:36:58;7.37;;;2.50;;
7817;SDS011;3954;52.624;9.212;2023-04-25T07:39:24;7.90;;;2.37;;
7817;SDS011;3954;52.624;9.212;2023-04-25T07:41:50;7.80;;;2.70;;
7817;SDS011;3954;52.624;9.212;2023-04-25T07:44:16;8.73;;;2.60;;
7817;SDS011;3954;52.624;9.212;2023-04-25T07:46:42;7.57;;;2.57;;
7817;SDS011;3954;52.624;9.212;2023-04-25T07:49:08;8.53;;;2.53;;
7817;SDS011;3954;52.624;9.212;2023-04-25T07:51:35;7.27;;;2.27;;
7817;SDS011;3954;52.624;9.212;2023-04-25T07:54:02;6.10;;;2.73;;
7817;SDS011;3954;52.624;9.212;2023-04-25T07:56:30;6.70;;;3.13;;
7817;SDS011;3954;52.624;9.212;2023-04-25T07:58:56;9.93;;;2.90;;
7817;SDS011;3954;52.624;9.212;2023-04-25T08:01:22;7.20;;;2.57;;
7817;SDS011;3954;52.624;9.212;2023-04-25T08:03:48;4.23;;;1.97;;
7817;SDS011;3954;52.624;9.212;2023-04-25T08:06:14;5.53;;;2.70;;
7817;SDS011;3954;52.624;9.212;2023-04-25T08:08:40;7.33;;;2.60;;
7817;SDS011;3954;52.624;9.212;2023-04-25T08:11:11;9.63;;;2.70;;
7817;SDS011;3954;52.624;9.212;2023-04-25T08:13:37;7.03;;;2.33;;
7817;SDS011;3954;52.624;9.212;2023-04-25T08:16:03;7.73;;;2.47;;
7817;SDS011;3954;52.624;9.212;2023-04-25T08:18:29;5.17;;;2.30;;
7817;SDS011;3954;52.624;9.212;2023-04-25T08:20:55;6.23;;;2.33;;
7817;SDS011;3954;52.624;9.212;2023-04-25T08:23:21;7.67;;;2.20;;
7817;SDS011;3954;52.624;9.212;2023-04-25T08:25:47;6.67;;;2.40;;
7817;SDS011;3954;52.624;9.212;2023-04-25T08:28:15;6.93;;;2.30;;
7817;SDS011;3954;52.624;9.212;2023-04-25T08:30:41;5.53;;;2.10;;
7817;SDS011;3954;52.624;9.212;2023-04-25T08:33:07;8.37;;;2.70;;
7817;SDS011;3954;52.624;9.212;2023-04-25T08:35:33;9.00;;;2.10;;
7817;SDS011;3954;52.624;9.212;2023-04-25T08:37:59;6.40;;;2.10;;
7817;SDS011;3954;52.624;9.212;2023-04-25T08:40:26;6.00;;;2.20;;
7817;SDS011;3954;52.624;9.212;2023-04-25T08:42:55;7.50;;;2.17;;
7817;SDS011;3954;52.624;9.212;2023-04-25T08:45:23;4.93;;;2.30;;
7817;SDS011;3954;52.624;9.212;2023-04-25T08:47:50;6.17;;;2.10;;
7817;SDS011;3954;52.624;9.212;2023-04-25T08:50:18;5.33;;;2.00;;
7817;SDS011;3954;52.624;9.212;2023-04-25T08:52:46;6.47;;;2.13;;
7817;SDS011;3954;52.624;9.212;2023-04-25T08:55:13;5.10;;;2.13;;
7817;SDS011;3954;52.624;9.212;2023-04-25T08:57:39;4.17;;;1.80;;
7817;SDS011;3954;52.624;9.212;2023-04-25T09:00:08;5.10;;;2.30;;
7817;SDS011;3954;52.624;9.212;2023-04-25T09:02:35;5.33;;;2.07;;
7817;SDS011;3954;52.624;9.212;2023-04-25T09:05:02;4.03;;;1.60;;
7817;SDS011;3954;52.624;9.212;2023-04-25T09:07:29;5.20;;;1.90;;
7817;SDS011;3954;52.624;9.212;2023-04-25T09:09:55;3.20;;;1.70;;
7817;SDS011;3954;52.624;9.212;2023-04-25T09:12:21;7.33;;;1.87;;
7817;SDS011;3954;52.624;9.212;2023-04-25T09:15:01;4.93;;;1.97;;
7817;SDS011;3954;52.624;9.212;2023-04-25T09:17:29;5.27;;;1.83;;
7817;SDS011;3954;52.624;9.212;2023-04-25T09:19:56;4.10;;;2.10;;
7817;SDS011;3954;52.624;9.212;2023-04-25T09:22:30;6.57;;;2.10;;
7817;SDS011;3954;52.624;9.212;2023-04-25T09:24:56;6.97;;;2.10;;
7817;SDS011;3954;52.624;9.212;2023-04-25T09:27:22;4.33;;;1.67;;
7817;SDS011;3954;52.624;9.212;2023-04-25T09:29:49;8.57;;;2.50;;
7817;SDS011;3954;52.624;9.212;2023-04-25T09:32:22;5.67;;;2.00;;
7817;SDS011;3954;52.624;9.212;2023-04-25T09:34:49;4.63;;;2.00;;
7817;SDS011;3954;52.624;9.212;2023-04-25T09:37:20;5.20;;;2.00;;
7817;SDS011;3954;52.624;9.212;2023-04-25T09:39:46;4.30;;;1.90;;
7817;SDS011;3954;52.624;9.212;2023-04-25T09:42:13;4.57;;;1.87;;
7817;SDS011;3954;52.624;9.212;2023-04-25T09:44:42;5.63;;;2.20;;
7817;SDS011;3954;52.624;9.212;2023-04-25T09:47:09;4.83;;;2.17;;
7817;SDS011;3954;52.624;9.212;2023-04-25T09:49:38;5.33;;;2.20;;
7817;SDS011;3954;52.624;9.212;2023-04-25T09:52:04;6.80;;;2.40;;
7817;SDS011;3954;52.624;9.212;2023-04-25T09:54:31;4.63;;;1.90;;
7817;SDS011;3954;52.624;9.212;2023-04-25T09:56:57;3.60;;;1.43;;
7817;SDS011;3954;52.624;9.212;2023-04-25T09:59:25;3.03;;;1.40;;
7817;SDS011;3954;52.624;9.212;2023-04-25T10:01:52;4.43;;;1.83;;
7817;SDS011;3954;52.624;9.212;2023-04-25T10:04:24;6.50;;;1.80;;
7817;SDS011;3954;52.624;9.212;2023-04-25T10:06:53;2.90;;;1.60;;
7817;SDS011;3954;52.624;9.212;2023-04-25T10:09:20;2.43;;;1.43;;
7817;SDS011;3954;52.624;9.212;2023-04-25T10:11:49;5.07;;;1.70;;
7817;SDS011;3954;52.624;9.212;2023-04-25T10:14:16;4.87;;;1.80;;
7817;SDS011;3954;52.624;9.212;2023-04-25T10:16:42;2.40;;;1.53;;
7817;SDS011;3954;52.624;9.212;2023-04-25T10:19:08;2.87;;;1.77;;
7817;SDS011;3954;52.624;9.212;2023-04-25T10:21:34;6.43;;;1.90;;
7817;SDS011;3954;52.624;9.212;2023-04-25T10:24:03;4.50;;;1.70;;
7817;SDS011;3954;52.624;9.212;2023-04-25T10:26:29;5.07;;;1.60;;
7817;SDS011;3954;52.624;9.212;2023-04-25T10:28:57;4.77;;;1.97;;
7817;SDS011;3954;52.624;9.212;2023-04-25T10:31:23;3.07;;;1.70;;
7817;SDS011;3954;52.624;9.212;2023-04-25T10:33:50;3.83;;;1.67;;
7817;SDS011;3954;52.624;9.212;2023-04-25T10:36:17;4.00;;;1.77;;
7817;SDS011;3954;52.624;9.212;2023-04-25T10:38:44;8.17;;;2.07;;
7817;SDS011;3954;52.624;9.212;2023-04-25T10:41:10;4.97;;;1.80;;
7817;SDS011;3954;52.624;9.212;2023-04-25T10:43:37;1.93;;;1.47;;
7817;SDS011;3954;52.624;9.212;2023-04-25T10:46:18;3.37;;;1.40;;
7817;SDS011;3954;52.624;9.212;2023-04-25T10:48:48;6.07;;;1.43;;
7817;SDS011;3954;52.624;9.212;2023-04-25T10:51:18;3.63;;;1.43;;
7817;SDS011;3954;52.624;9.212;2023-04-25T10:53:44;3.53;;;1.50;;
7817;SDS011;3954;52.624;9.212;2023-04-25T10:56:11;4.23;;;1.70;;
7817;SDS011;3954;52.624;9.212;2023-04-25T10:58:41;1.80;;;1.40;;
7817;SDS011;3954;52.624;9.212;2023-04-25T11:01:07;2.73;;;1.53;;
7817;SDS011;3954;52.624;9.212;2023-04-25T11:03:38;4.13;;;1.80;;
7817;SDS011;3954;52.624;9.212;2023-04-25T11:06:04;2.33;;;1.70;;
7817;SDS011;3954;52.624;9.212;2023-04-25T11:08:35;5.23;;;2.10;;
7817;SDS011;3954;52.624;9.212;2023-04-25T11:11:03;4.90;;;1.80;;
7817;SDS011;3954;52.624;9.212;2023-04-25T11:13:29;3.80;;;1.60;;
7817;SDS011;3954;52.624;9.212;2023-04-25T11:15:55;5.20;;;1.90;;
7817;SDS011;3954;52.624;9.212;2023-04-25T11:18:21;4.00;;;1.60;;
7817;SDS011;3954;52.624;9.212;2023-04-25T11:20:48;3.77;;;1.50;;
7817;SDS011;3954;52.624;9.212;2023-04-25T11:23:15;2.53;;;1.40;;
7817;SDS011;3954;52.624;9.212;2023-04-25T11:25:41;3.10;;;1.50;;
7817;SDS011;3954;52.624;9.212;2023-04-25T11:28:07;4.00;;;1.40;;
7817;SDS011;3954;52.624;9.212;2023-04-25T11:30:34;6.53;;;1.80;;
7817;SDS011;3954;52.624;9.212;2023-04-25T11:33:00;5.37;;;1.70;;
7817;SDS011;3954;52.624;9.212;2023-04-25T11:35:27;4.03;;;1.80;;
7817;SDS011;3954;52.624;9.212;2023-04-25T11:37:55;4.80;;;1.97;;
7817;SDS011;3954;52.624;9.212;2023-04-25T11:40:21;3.23;;;1.90;;
7817;SDS011;3954;52.624;9.212;2023-04-25T11:42:47;2.87;;;1.50;;
7817;SDS011;3954;52.624;9.212;2023-04-25T11:45:13;3.63;;;1.67;;
7817;SDS011;3954;52.624;9.212;2023-04-25T11:47:39;3.50;;;1.20;;
7817;SDS011;3954;52.624;9.212;2023-04-25T11:50:06;2.80;;;1.40;;
7817;SDS011;3954;52.624;9.212;2023-04-25T11:52:37;3.27;;;1.27;;
7817;SDS011;3954;52.624;9.212;2023-04-25T11:55:05;1.27;;;1.03;;
7817;SDS011;3954;52.624;9.212;2023-04-25T11:57:32;1.97;;;1.20;;
7817;SDS011;3954;52.624;9.212;2023-04-25T12:00:04;4.43;;;1.40;;
7817;SDS011;3954;52.624;9.212;2023-04-25T12:02:31;2.03;;;1.23;;
7817;SDS011;3954;52.624;9.212;2023-04-25T12:04:58;2.13;;;1.10;;
7817;SDS011;3954;52.624;9.212;2023-04-25T12:07:27;5.70;;;1.40;;
7817;SDS011;3954;52.624;9.212;2023-04-25T12:09:55;2.87;;;1.30;;
7817;SDS011;3954;52.624;9.212;2023-04-25T12:12:23;2.53;;;1.27;;
7817;SDS011;3954;52.624;9.212;2023-04-25T12:14:52;1.87;;;1.13;;
7817;SDS011;3954;52.624;9.212;2023-04-25T12:17:20;1.87;;;1.50;;
7817;SDS011;3954;52.624;9.212;2023-04-25T12:19:46;3.77;;;1.40;;
7817;SDS011;3954;52.624;9.212;2023-04-25T12:22:19;2.47;;;1.57;;
7817;SDS011;3954;52.624;9.212;2023-04-25T12:24:46;3.80;;;1.30;;
7817;SDS011;3954;52.624;9.212;2023-04-25T12:27:13;2.00;;;1.20;;
7817;SDS011;3954;52.624;9.212;2023-04-25T12:29:49;3.17;;;1.20;;
7817;SDS011;3954;52.624;9.212;2023-04-25T12:32:16;1.80;;;1.40;;
7817;SDS011;3954;52.624;9.212;2023-04-25T12:34:42;3.47;;;1.57;;
7817;SDS011;3954;52.624;9.212;2023-04-25T12:37:08;3.47;;;1.37;;
7817;SDS011;3954;52.624;9.212;2023-04-25T12:39:35;3.90;;;1.90;;
7817;SDS011;3954;52.624;9.212;2023-04-25T12:42:01;2.60;;;1.60;;
7817;SDS011;3954;52.624;9.212;2023-04-25T12:44:28;3.93;;;1.57;;
7817;SDS011;3954;52.624;9.212;2023-04-25T12:46:55;3.53;;;1.80;;
7817;SDS011;3954;52.624;9.212;2023-04-25T12:49:21;5.13;;;1.87;;
7817;SDS011;3954;52.624;9.212;2023-04-25T12:51:48;3.90;;;1.57;;
7817;SDS011;3954;52.624;9.212;2023-04-25T12:54:14;4.07;;;1.50;;
7817;SDS011;3954;52.624;9.212;2023-04-25T12:56:40;6.97;;;1.93;;
7817;SDS011;3954;52.624;9.212;2023-04-25T12:59:07;3.47;;;1.53;;
7817;SDS011;3954;52.624;9.212;2023-04-25T13:01:33;2.23;;;1.63;;
7817;SDS011;3954;52.624;9.212;2023-04-25T13:04:00;4.70;;;1.77;;
7817;SDS011;3954;52.624;9.212;2023-04-25T13:06:26;3.23;;;1.43;;
7817;SDS011;3954;52.624;9.212;2023-04-25T13:08:52;4.30;;;1.57;;
7817;SDS011;3954;52.624;9.212;2023-04-25T13:11:19;3.07;;;1.50;;
7817;SDS011;3954;52.624;9.212;2023-04-25T13:13:45;4.47;;;1.70;;
7817;SDS011;3954;52.624;9.212;2023-04-25T13:16:11;3.43;;;1.70;;
7817;SDS011;3954;52.624;9.212;2023-04-25T13:18:39;3.73;;;1.37;;
7817;SDS011;3954;52.624;9.212;2023-04-25T13:21:06;2.87;;;1.40;;
7817;SDS011;3954;52.624;9.212;2023-04-25T13:23:32;3.80;;;1.60;;
7817;SDS011;3954;52.624;9.212;2023-04-25T13:25:58;4.13;;;1.50;;
7817;SDS011;3954;52.624;9.212;2023-04-25T13:28:26;2.33;;;1.40;;
7817;SDS011;3954;52.624;9.212;2023-04-25T13:30:52;1.60;;;1.50;;
7817;SDS011;3954;52.624;9.212;2023-04-25T13:33:18;3.30;;;1.80;;
7817;SDS011;3954;52.624;9.212;2023-04-25T13:35:45;3.47;;;1.40;;
7817;SDS011;3954;52.624;9.212;2023-04-25T13:38:23;2.00;;;1.33;;
7817;SDS011;3954;52.624;9.212;2023-04-25T13:40:49;3.00;;;1.60;;
7817;SDS011;3954;52.624;9.212;2023-04-25T13:43:18;4.27;;;1.50;;
7817;SDS011;3954;52.624;9.212;2023-04-25T13:45:44;3.97;;;1.37;;
7817;SDS011;3954;52.624;9.212;2023-04-25T13:48:10;4.40;;;1.60;;
7817;SDS011;3954;52.624;9.212;2023-04-25T13:50:36;4.93;;;1.77;;
7817;SDS011;3954;52.624;9.212;2023-04-25T13:53:02;3.43;;;1.57;;
7817;SDS011;3954;52.624;9.212;2023-04-25T13:55:29;6.43;;;1.57;;
7817;SDS011;3954;52.624;9.212;2023-04-25T13:57:55;2.27;;;1.30;;
7817;SDS011;3954;52.624;9.212;2023-04-25T14:00:21;4.70;;;1.67;;
7817;SDS011;3954;52.624;9.212;2023-04-25T14:02:47;2.40;;;1.40;;
7817;SDS011;3954;52.624;9.212;2023-04-25T14:05:14;4.47;;;1.50;;
7817;SDS011;3954;52.624;9.212;2023-04-25T14:07:40;3.93;;;1.60;;
7817;SDS011;3954;52.624;9.212;2023-04-25T14:10:06;2.10;;;1.27;;
7817;SDS011;3954;52.624;9.212;2023-04-25T14:12:34;2.77;;;1.60;;
7817;SDS011;3954;52.624;9.212;2023-04-25T14:15:00;4.77;;;1.70;;
7817;SDS011;3954;52.624;9.212;2023-04-25T14:17:26;3.67;;;1.57;;
7817;SDS011;3954;52.624;9.212;2023-04-25T14:19:52;5.67;;;1.93;;
7817;SDS011;3954;52.624;9.212;2023-04-25T14:22:18;4.67;;;1.77;;
7817;SDS011;3954;52.624;9.212;2023-04-25T14:24:44;2.80;;;1.70;;
7817;SDS011;3954;52.624;9.212;2023-04-25T14:27:10;2.33;;;1.63;;
7817;SDS011;3954;52.624;9.212;2023-04-25T14:29:38;5.03;;;2.20;;
7817;SDS011;3954;52.624;9.212;2023-04-25T14:32:04;6.23;;;1.50;;
7817;SDS011;3954;52.624;9.212;2023-04-25T14:34:30;5.10;;;1.70;;
7817;SDS011;3954;52.624;9.212;2023-04-25T14:36:56;2.87;;;1.87;;
7817;SDS011;3954;52.624;9.212;2023-04-25T14:39:22;3.07;;;1.60;;
7817;SDS011;3954;52.624;9.212;2023-04-25T14:41:48;3.67;;;1.73;;
7817;SDS011;3954;52.624;9.212;2023-04-25T14:44:14;5.60;;;1.77;;
7817;SDS011;3954;52.624;9.212;2023-04-25T14:46:41;3.57;;;1.60;;
7817;SDS011;3954;52.624;9.212;2023-04-25T14:49:07;7.50;;;2.17;;
7817;SDS011;3954;52.624;9.212;2023-04-25T14:51:33;3.70;;;1.90;;
7817;SDS011;3954;52.624;9.212;2023-04-25T14:54:00;3.97;;;1.83;;
7817;SDS011;3954;52.624;9.212;2023-04-25T14:56:26;4.17;;;1.80;;
7817;SDS011;3954;52.624;9.212;2023-04-25T14:58:52;4.47;;;1.90;;
7817;SDS011;3954;52.624;9.212;2023-04-25T15:01:18;5.07;;;1.90;;
7817;SDS011;3954;52.624;9.212;2023-04-25T15:03:46;4.30;;;1.87;;
7817;SDS011;3954;52.624;9.212;2023-04-25T15:06:13;2.80;;;1.60;;